Airfield :
LOGIN :

Register | Disclaimer

   EN    FR    IT 

 










Legend :    VFR   Marginal VFR   IFR   Intensive IFR   Very Intensive IFR
Visi :
Ceiling :
>= 8 km
>= 3000ft
5 to 8 km
1000 to 3000 ft
1500m to 5 km
500 to 1000 ft
800 to 1500m
200 to 500 ft
< 800m
< 200 ft
Symbols :   Thunderstorms  Fog  Heavy snow  Heavy precipitations  Wind > 20 kt
SIGMETs :     Misc.  Thunderstorms  Icing  Turbulence  Mountain Waves  Volcanic Ashes







- Airport Elevation : 72 ft
- IATA code : UDE


EHVK - Volkel Airbase

CURRENT METAR :
  • 230455Z AUTO 19014KT 140V240 9999 OVC110 13/05 Q0997 BLU

EXPIRED METARs :
  • 230425Z AUTO 18015G26KT 150V230 9999 OVC140 12/04 Q0997 BLU
  • 230355Z AUTO 19013KT 160V230 9999 BKN110 12/04 Q0998 BLU
  • 230325Z AUTO 18013KT 140V230 9999 SCT120 12/04 Q0998 BLU
  • 230255Z AUTO 18012KT 150V250 9999 BKN120 OVC210 11/04 Q0998 BLU
  • 230225Z AUTO 18011KT 130V210 9999 BKN110 BKN240 11/04 Q0998 BLU

TAF TAF EHVK
Valid from the 23 at 02:00 until the 23 at 14:00 UTC


230116Z 2302/2314 19013KT CAVOK
BECMG 2301/2303 20020G33KT
BECMG 2310/2313 BKN020
TEMPO 2312/2314 21020G40KT 4500 SHRA FEW012 SCT015CB BKN018
No reported NOTAMs for that airfield.



MET'MAP, your aeronautical weather chart ! - Copyright ORBIFLY December 2007 - Disclaimer

ORBIFLY MET'MAP TEAM :

Programming & Development : Alexandra Zaïnal
Concept & Development : Baudouin d'Aumeries
Co-Development & Prog : Marc-Olivier Méhu
Technical & hardware support : Manuel Goepfert

Contact : metmap@orbifly.com




SOURCES & CREDITS :

   NOAA